Historyczne dane pomiarowe

Dodano dane terminowe – wersja testowa.

Dane z okresu 1951-2019

Wersja bazy: 1.34 [2019-03-16, lista zmian], aktualizacja planowana na 2019-04-15

Dane meteo z obszaru Polski uzyskane na podstawie danych udostępnionych przez Instytut Meteorologii i Gospodarki Wodnej – Państwowy Instytut Badawczy.

 

Wybierz Datę:    

       

TemperaturaWilgotnośćWiatrCiśnienieOpadyŚniegCzas trwania zjawisk
 Stacja t tx tn tng RH VA  wxwx mslp ppp RRR   cm mm wxwxwxwxwxwxwx
2019-06-19 21.6 30.0 12.7--- 6.3----- 7.8------------
2019-06-18 19.5 26.8 9.6--- 5.0----- 0.0------------
2019-06-17 18.8 25.4 12.3--- 5.0----- 0.0------------
2019-06-16 22.2 29.3 16.6--- 4.3----- 2.0------------
2019-06-15 25.6 34.3 15.6--- 2.0----- 0.0------------
2019-06-14 24.6 30.2 17.6--- 3.7----- 0.0------------
2019-06-13 24.9 34.0 15.7--- 5.3----- 0.0------------
2019-06-12 24.7 32.8 15.9--- 2.3----- 0.0------------
2019-06-11 25.0 32.5 16.3--- 0.3----- 0.0------------
2019-06-10 23.2 31.0 14.1--- 0.7----- 0.0------------
2019-06-09 19.2 27.0 8.1--- 1.3----- 0.0------------
2019-06-08 20.3 28.4 12.7--- 5.7----- 1.6------------
2019-06-07 20.7 26.5 12.3--- 5.3----- 0.0------------
2019-06-06 20.7 27.2 11.5--- 4.3----- 0.0------------
2019-06-05 21.4 27.8 12.9--- 0.7----- 0.0------------
2019-06-04 20.9 28.6 9.7--- 2.7----- 0.0------------
2019-06-03 19.1 27.2 8.8--- 2.7----- 0.0------------
2019-06-02 18.8 28.0 9.0--- 4.0----- 0.0------------
2019-06-01 18.5 24.7 8.6--- 3.7----- 0.0------------
2019-05-31 16.2 23.0 9.2--- 4.7----- 0.0------------
2019-05-30 11.4 18.2 3.5--- 5.3----- 0.0------------
2019-05-29 13.0 16.2 10.0--- 6.7----- 0.2------------
2019-05-28 17.6 24.3 12.7--- 6.0----- 2.7------------
2019-05-27 17.3 25.2 7.7--- 4.7----- 3.5------------
2019-05-26 15.6 22.8 6.5--- 4.0----- 0.0------------
2019-05-25 14.6 23.3 4.3--- 4.3----- 0.0------------
2019-05-24 13.9 17.3 10.3--- 6.3----- 0.4------------
2019-05-23 13.6 15.3 12.0--- 7.7----- 1.7------------
2019-05-22 13.7 16.5 11.5--- 7.7----- 4.7------------
2019-05-21 15.0 19.3 9.8--- 7.0----- 7.5------------
2019-05-20 17.8 24.4 10.5--- 6.3----- 0.0------------
2019-05-19 16.1 24.5 8.8--- 4.7----- 1.0------------
2019-05-18 17.1 23.9 8.9--- 5.3----- 0.0------------
2019-05-17 14.5 20.0 11.0--- 6.3----- 0.5------------
2019-05-16 12.2 16.3 8.4--- 7.7----- 7.5------------
2019-05-15 8.4 10.2 5.8--- 7.7----- 3.8------------
2019-05-14 6.1 8.3 3.6--- 7.7----- 10.6------------
2019-05-13 8.5 13.4 6.1--- 5.3----- 1.4------------
2019-05-12 12.9 19.5 9.0--- 6.3----- 0.5------------
2019-05-11 13.2 19.5 7.1--- 2.7----- 0.0------------
2019-05-10 11.8 18.9 6.7--- 6.7----- 0.0------------
2019-05-09 8.5 12.6 4.7--- 8.0----- 2.5------------
2019-05-08 8.6 17.4 0.9--- 1.0----- 0.0------------
2019-05-07 7.4 14.0 1.2--- 4.0----- 0.0------------
2019-05-06 7.7 12.1 3.9--- 6.0----- 0.0------------
2019-05-05 6.8 11.8 2.8--- 7.3----- 0.5------------
2019-05-04 9.1 16.8 0.8--- 7.0----- 2.0------------
2019-05-03 8.8 13.5 2.1--- 6.0----- 0.0------------
2019-05-02 12.7 18.3 8.1--- 2.7----- 0.0------------
2019-05-01 10.6 18.1 4.3--- 3.7----- 0.1------------
2019-04-30 12.3 18.3 8.8--- 7.3----- 1.2------------
2019-04-29 10.7 12.3 8.8--- 8.0----- 3.5------------
2019-04-28 9.6 11.8 8.4--- 8.0----- 11.5------------
2019-04-27 13.9 23.2 7.8--- 7.0----- 1.0------------
2019-04-26 17.5 28.3 6.3--- 3.0----- 0.0------------
2019-04-25 17.6 26.2 8.4--- 2.0----- 0.0------------
2019-04-24 13.9 19.7 9.0--- 6.3----- 0.4------------
2019-04-23 11.4 19.3 2.6--- 4.7----- 0.0------------
2019-04-22 11.3 18.6 5.7--- 5.3----- 0.0------------
2019-04-21 9.7 18.0 -0.7--- 3.0----- 0.0------------
196.2 ms

 

Źródłem pochodzenia danych jest Instytut Meteorologii i Gospodarki Wodnej – Państwowy Instytut Badawczy. Dane Instytutu Meteorologii i Gospodarki Wodnej – Państwowego Instytutu Badawczego zostały przetworzone.

Dane źródłowe można odnaleźć na stronie https://dane.imgw.pl